createdAt,value
2019-04-28T00:01:35.837Z,8.10
2019-04-28T00:03:37.225Z,8.30
2019-04-28T00:05:38.765Z,8.90
2019-04-28T00:07:41.118Z,8.68
2019-04-28T00:09:42.531Z,8.70
2019-04-28T00:11:43.869Z,10.95
2019-04-28T00:13:45.258Z,9.53
2019-04-28T00:15:46.538Z,9.90
2019-04-28T00:17:47.797Z,11.68
2019-04-28T00:19:49.061Z,11.08
2019-04-28T00:21:58.121Z,9.90
2019-04-28T00:24:11.433Z,11.05
2019-04-28T00:26:31.058Z,10.38
2019-04-28T00:28:33.557Z,10.03
2019-04-28T00:30:35.045Z,10.45
2019-04-28T00:32:39.382Z,10.48
2019-04-28T00:34:41.371Z,10.48
2019-04-28T00:36:44.686Z,10.78
2019-04-28T00:38:45.986Z,10.88
2019-04-28T00:40:47.402Z,10.23
2019-04-28T00:42:48.942Z,10.35
2019-04-28T00:44:51.520Z,10.38
2019-04-28T00:46:52.957Z,10.38
2019-04-28T00:48:54.318Z,10.78
2019-04-28T00:50:55.593Z,10.90
2019-04-28T00:52:58.342Z,10.48
2019-04-28T00:55:01.175Z,9.83
2019-04-28T00:57:02.765Z,8.98
2019-04-28T00:59:04.026Z,8.83
2019-04-28T01:01:11.358Z,9.40
2019-04-28T01:03:13.033Z,9.50
2019-04-28T01:05:14.306Z,9.88
2019-04-28T01:07:15.609Z,9.68
2019-04-28T01:09:17.083Z,9.43
2019-04-28T01:11:18.358Z,10.65
2019-04-28T01:13:21.451Z,11.10
2019-04-28T01:15:39.837Z,10.23
2019-04-28T01:17:43.010Z,10.82
2019-04-28T01:19:49.875Z,12.28
2019-04-28T01:22:10.255Z,12.80
2019-04-28T01:24:12.149Z,10.95
2019-04-28T01:26:13.422Z,13.18
2019-04-28T01:28:14.725Z,12.93
2019-04-28T01:30:20.263Z,14.40
2019-04-28T01:32:32.127Z,13.08
2019-04-28T01:34:33.413Z,13.93
2019-04-28T01:36:36.310Z,13.13
2019-04-28T01:38:37.594Z,14.90
2019-04-28T01:40:38.902Z,15.63
2019-04-28T01:42:41.283Z,14.75
2019-04-28T01:44:42.793Z,13.95
2019-04-28T01:46:44.065Z,15.13
2019-04-28T01:48:45.367Z,16.45
2019-04-28T01:50:46.829Z,15.20
2019-04-28T01:52:49.711Z,15.18
2019-04-28T01:54:51.869Z,15.98
2019-04-28T01:56:53.297Z,17.00
2019-04-28T01:58:54.715Z,15.38
2019-04-28T02:00:55.978Z,16.40
2019-04-28T02:02:57.657Z,17.82
2019-04-28T02:07:01.480Z,16.12
2019-04-28T02:09:06.441Z,16.90
2019-04-28T02:11:10.105Z,15.65
2019-04-28T02:13:11.603Z,15.72
2019-04-28T02:15:12.961Z,17.07
2019-04-28T02:17:14.232Z,16.07
2019-04-28T02:19:15.746Z,17.25
2019-04-28T02:21:25.710Z,17.48
2019-04-28T02:23:29.910Z,16.42
2019-04-28T02:25:31.271Z,17.45
2019-04-28T02:27:32.654Z,16.57
2019-04-28T02:29:33.913Z,18.67
2019-04-28T02:31:35.219Z,17.23
2019-04-28T02:33:36.586Z,17.95
2019-04-28T02:35:38.166Z,18.87
2019-04-28T02:39:42.338Z,17.05
2019-04-28T02:41:43.689Z,19.95
2019-04-28T02:43:45.235Z,17.48
2019-04-28T02:45:52.967Z,19.20
2019-04-28T02:47:53.345Z,19.57
2019-04-28T02:50:00.621Z,19.27
2019-04-28T02:52:20.659Z,19.32
2019-04-28T02:54:21.536Z,19.87
2019-04-28T02:56:22.802Z,19.60
2019-04-28T02:58:24.075Z,20.25
2019-04-28T03:00:25.365Z,20.32
2019-04-28T03:02:26.645Z,19.35
2019-04-28T03:04:30.719Z,19.07
2019-04-28T03:06:31.205Z,18.60
2019-04-28T03:08:32.487Z,18.98
2019-04-28T03:10:33.971Z,19.12
2019-04-28T03:12:35.330Z,18.98
2019-04-28T03:14:36.606Z,19.25
2019-04-28T03:16:40.781Z,19.48
2019-04-28T03:18:41.519Z,17.77
2019-04-28T03:22:44.229Z,17.95
2019-04-28T03:24:47.289Z,18.23
2019-04-28T03:26:52.979Z,18.20
2019-04-28T03:29:01.028Z,17.45
2019-04-28T03:31:34.718Z,16.85
2019-04-28T03:33:17.056Z,17.90
2019-04-28T03:35:13.397Z,16.65
2019-04-28T03:37:14.984Z,16.73
2019-04-28T03:39:16.246Z,16.55
2019-04-28T03:41:17.547Z,18.55
2019-04-28T03:43:21.299Z,17.02
2019-04-28T03:45:23.886Z,15.78
2019-04-28T03:47:25.258Z,15.88
2019-04-28T03:49:33.710Z,16.67
2019-04-28T03:51:35.334Z,16.50
2019-04-28T03:53:44.558Z,16.02
2019-04-28T03:55:57.805Z,16.52
2019-04-28T03:58:15.020Z,16.02
2019-04-28T04:00:36.072Z,14.73
2019-04-28T04:02:46.768Z,14.45
2019-04-28T04:04:53.560Z,15.88
2019-04-28T04:07:04.817Z,14.85
2019-04-28T04:09:24.204Z,14.45
2019-04-28T04:11:52.153Z,13.93
2019-04-28T04:14:11.282Z,13.75
2019-04-28T04:16:27.286Z,14.23
2019-04-28T04:18:44.594Z,14.50
2019-04-28T04:21:00.846Z,13.50
2019-04-28T04:23:11.494Z,12.98
2019-04-28T04:25:13.671Z,13.28
2019-04-28T04:27:14.952Z,12.82
2019-04-28T04:29:16.545Z,12.33
2019-04-28T04:33:21.092Z,12.68
2019-04-28T04:35:22.452Z,12.43
2019-04-28T04:37:23.728Z,12.55
2019-04-28T04:39:24.999Z,12.95
2019-04-28T04:41:26.352Z,12.37
2019-04-28T04:43:27.956Z,12.15
2019-04-28T04:47:32.875Z,11.50
2019-04-28T04:49:34.580Z,11.18
2019-04-28T04:51:36.196Z,10.40
2019-04-28T04:53:37.753Z,10.60
2019-04-28T04:57:42.166Z,10.85
2019-04-28T04:59:43.446Z,9.28
2019-04-28T05:01:46.650Z,9.98
2019-04-28T05:03:52.436Z,9.90
2019-04-28T05:05:53.703Z,10.30
2019-04-28T05:07:54.984Z,9.68
2019-04-28T05:09:56.267Z,9.33
2019-04-28T05:11:57.530Z,9.28
2019-04-28T05:13:59.660Z,8.75
2019-04-28T05:16:01.442Z,8.93
2019-04-28T05:18:03.297Z,9.05
2019-04-28T05:20:05.145Z,8.90
2019-04-28T05:22:06.918Z,8.33
2019-04-28T05:24:22.037Z,8.63
2019-04-28T05:26:24.805Z,8.15
2019-04-28T05:28:26.097Z,7.97
2019-04-28T05:30:29.277Z,8.08
2019-04-28T05:32:42.490Z,8.50
2019-04-28T05:34:34.123Z,7.87
2019-04-28T05:36:41.103Z,7.45
2019-04-28T05:38:40.485Z,9.08
2019-04-28T05:40:42.422Z,7.85
2019-04-28T05:42:45.681Z,9.35
2019-04-28T05:44:46.958Z,7.70
2019-04-28T05:46:50.369Z,7.35
2019-04-28T05:48:53.583Z,7.40
2019-04-28T05:50:56.846Z,7.83
2019-04-28T05:53:19.303Z,7.62
2019-04-28T05:55:26.375Z,7.72
2019-04-28T05:57:32.508Z,7.50
2019-04-28T05:59:50.712Z,7.33
2019-04-28T06:01:56.545Z,6.75
2019-04-28T06:03:57.844Z,6.50
2019-04-28T06:05:59.958Z,7.53
2019-04-28T06:08:23.861Z,6.80
2019-04-28T06:10:25.149Z,7.85
2019-04-28T06:12:26.717Z,7.17
2019-04-28T06:16:31.584Z,6.37
2019-04-28T06:18:35.869Z,7.92
2019-04-28T06:20:37.498Z,6.17
2019-04-28T06:24:42.445Z,7.28
2019-04-28T06:26:43.713Z,6.35
2019-04-28T06:28:45.031Z,6.40
2019-04-28T06:30:46.314Z,6.80
2019-04-28T06:32:47.592Z,6.45
2019-04-28T06:34:48.869Z,6.10
2019-04-28T06:36:50.205Z,5.08
2019-04-28T06:38:51.489Z,5.37
2019-04-28T06:40:52.801Z,5.92
2019-04-28T06:42:54.075Z,5.35
2019-04-28T06:44:55.412Z,5.58
2019-04-28T06:46:56.756Z,5.37
2019-04-28T06:48:58.057Z,4.50
2019-04-28T06:50:59.338Z,4.92
2019-04-28T06:53:02.908Z,5.92
2019-04-28T06:55:05.997Z,4.80
2019-04-28T06:57:07.263Z,5.08
2019-04-28T06:59:08.526Z,5.08
2019-04-28T07:01:09.822Z,5.30
2019-04-28T07:03:22.650Z,5.40
2019-04-28T07:05:14.353Z,5.17
2019-04-28T07:07:15.676Z,5.22
2019-04-28T07:09:17.044Z,5.83
2019-04-28T07:11:18.419Z,5.92
2019-04-28T07:13:20.735Z,5.33
2019-04-28T07:15:22.528Z,5.55
2019-04-28T07:19:25.106Z,4.97
2019-04-28T07:21:37.061Z,5.70
2019-04-28T07:23:39.733Z,5.78
2019-04-28T07:25:41.019Z,5.90
2019-04-28T07:27:42.302Z,5.95
2019-04-28T07:29:43.576Z,6.00
2019-04-28T07:31:44.847Z,6.22
2019-04-28T07:33:46.117Z,6.12
2019-04-28T07:35:47.393Z,5.83
2019-04-28T07:37:48.645Z,6.08
2019-04-28T07:39:50.201Z,5.83
2019-04-28T07:41:51.477Z,5.45
2019-04-28T07:43:52.737Z,5.92
2019-04-28T07:45:54.012Z,5.28
2019-04-28T07:47:55.889Z,6.40
2019-04-28T07:49:57.169Z,6.90
2019-04-28T07:52:03.042Z,5.90
2019-04-28T07:54:12.320Z,6.72
2019-04-28T07:56:13.619Z,5.97
2019-04-28T07:58:14.881Z,6.62
2019-04-28T08:00:18.250Z,6.30
2019-04-28T08:02:19.925Z,5.45
2019-04-28T08:06:22.809Z,6.00
2019-04-28T08:08:24.109Z,6.37
2019-04-28T08:10:25.428Z,6.55
2019-04-28T08:12:26.871Z,5.92
2019-04-28T08:14:28.124Z,6.55
2019-04-28T08:16:29.625Z,6.72
2019-04-28T08:20:33.889Z,6.70
2019-04-28T08:24:36.398Z,6.80
2019-04-28T08:48:53.237Z,7.70
2019-04-28T08:50:54.560Z,7.33
2019-04-28T08:52:55.914Z,7.58
2019-04-28T08:54:57.174Z,8.70
2019-04-28T08:58:59.744Z,8.30
2019-04-28T09:09:08.214Z,9.30
2019-04-28T09:11:09.880Z,8.80
2019-04-28T09:41:25.070Z,10.03
2019-04-28T09:43:51.755Z,10.63
2019-04-28T11:53:34.414Z,3.00
2019-04-28T11:55:36.877Z,3.27
2019-04-28T18:09:12.276Z,3.45
2019-04-28T18:17:38.077Z,3.40
2019-04-28T18:19:39.353Z,2.85
2019-04-28T18:21:40.709Z,3.30
2019-04-28T18:23:42.084Z,3.05
2019-04-28T18:25:43.342Z,3.00
2019-04-28T19:35:43.138Z,6.50
2019-04-28T19:37:44.472Z,7.20
2019-04-28T19:39:48.012Z,7.92
2019-04-28T19:41:49.214Z,8.10
2019-04-28T19:43:50.772Z,7.03
2019-04-28T19:45:53.995Z,7.43
2019-04-28T19:47:55.262Z,8.73
2019-04-28T19:49:56.580Z,8.10
2019-04-28T19:51:58.026Z,9.00
2019-04-28T20:04:31.597Z,8.90
2019-04-28T20:06:32.857Z,8.65
2019-04-28T20:08:34.135Z,9.13
2019-04-28T20:10:35.586Z,9.05
2019-04-28T20:12:37.046Z,9.10
2019-04-28T20:14:38.322Z,9.30
2019-04-28T20:16:39.578Z,8.25
2019-04-28T20:18:40.933Z,8.93
2019-04-28T20:20:42.621Z,8.20
2019-04-28T20:22:44.072Z,8.15
2019-04-28T20:24:47.333Z,8.48
2019-04-28T20:26:48.639Z,7.78
2019-04-28T20:28:50.050Z,6.90
2019-04-28T20:30:51.397Z,6.67
2019-04-28T20:33:06.146Z,6.85
2019-04-28T20:34:56.180Z,6.70
2019-04-28T20:36:59.418Z,8.33
2019-04-28T20:39:02.946Z,7.28
2019-04-28T20:41:08.035Z,8.55
2019-04-28T20:43:11.554Z,7.53
2019-04-28T20:45:14.740Z,8.45
2019-04-28T20:47:16.161Z,6.80
2019-04-28T20:49:17.438Z,9.28
2019-04-28T20:51:18.828Z,7.45
2019-04-28T20:53:20.114Z,8.25
2019-04-28T20:55:21.461Z,8.15
2019-04-28T20:57:22.732Z,7.37
2019-04-28T20:59:24.129Z,9.38
2019-04-28T21:01:25.413Z,8.25
2019-04-28T21:03:27.112Z,7.80
2019-04-28T21:07:29.826Z,4.70
2019-04-28T21:09:31.170Z,5.90
2019-04-28T21:11:32.445Z,7.10
2019-04-28T21:13:33.781Z,7.12
2019-04-28T21:15:35.062Z,7.47
2019-04-28T21:17:36.337Z,7.60
2019-04-28T21:19:37.602Z,6.62
2019-04-28T21:21:38.884Z,7.15
2019-04-28T21:23:40.253Z,6.53
2019-04-28T21:25:41.533Z,7.65
2019-04-28T21:27:42.797Z,6.70
2019-04-28T21:29:44.073Z,6.40
2019-04-28T21:31:45.650Z,6.72
2019-04-28T21:33:46.925Z,6.70
2019-04-28T21:35:48.231Z,6.92
2019-04-28T21:37:49.565Z,6.47
2019-04-28T21:39:50.829Z,6.17
2019-04-28T21:41:52.371Z,6.15
2019-04-28T21:46:12.201Z,6.30
2019-04-28T21:48:15.375Z,7.03
2019-04-28T21:50:16.641Z,6.72
2019-04-28T21:52:17.897Z,6.17
2019-04-28T21:54:19.169Z,6.95
2019-04-28T21:56:20.446Z,6.47
2019-04-28T21:58:32.527Z,7.75
2019-04-28T22:00:33.166Z,6.58
2019-04-28T22:02:52.933Z,5.85
2019-04-28T22:04:54.565Z,5.90
2019-04-28T22:06:56.139Z,5.50
2019-04-28T22:08:57.531Z,7.95
2019-04-28T22:10:58.813Z,7.72
2019-04-28T22:13:00.357Z,6.85
2019-04-28T22:15:01.909Z,7.22
2019-04-28T22:17:04.403Z,7.20
2019-04-28T22:19:05.923Z,6.95
2019-04-28T22:21:07.198Z,6.87
2019-04-28T22:23:18.686Z,6.45
2019-04-28T22:25:24.715Z,7.35
2019-04-28T22:27:28.183Z,6.47
2019-04-28T22:29:29.540Z,7.30
2019-04-28T22:31:30.834Z,7.40
2019-04-28T22:33:32.123Z,7.00
2019-04-28T22:35:33.417Z,7.58
2019-04-28T22:37:34.901Z,7.42
2019-04-28T22:39:36.413Z,6.95
2019-04-28T22:41:39.593Z,8.33
2019-04-28T22:43:41.146Z,10.13
2019-04-28T22:45:42.754Z,12.50
2019-04-28T22:47:44.014Z,12.18
2019-04-28T22:49:45.282Z,10.88
2019-04-28T22:51:46.894Z,9.05
2019-04-28T22:55:51.933Z,9.05
2019-04-28T22:58:03.969Z,7.20
2019-04-28T23:00:10.809Z,7.12
2019-04-28T23:02:15.881Z,6.20
2019-04-28T23:04:20.157Z,6.85
2019-04-28T23:06:21.429Z,6.17
2019-04-28T23:08:22.685Z,6.95
2019-04-28T23:10:24.370Z,7.90
2019-04-28T23:14:27.408Z,9.15
2019-04-28T23:18:30.289Z,10.85
2019-04-28T23:20:33.901Z,9.83
2019-04-28T23:22:46.857Z,8.43
2019-04-28T23:24:40.561Z,8.80
2019-04-28T23:26:41.834Z,7.72
2019-04-28T23:28:44.094Z,8.30
2019-04-28T23:30:46.163Z,7.50
2019-04-28T23:32:47.438Z,5.70
2019-04-28T23:34:49.019Z,6.58
2019-04-28T23:36:51.463Z,6.20
2019-04-28T23:38:52.719Z,6.67
2019-04-28T23:40:58.433Z,6.50
2019-04-28T23:43:10.237Z,5.37
2019-04-28T23:45:12.715Z,6.87
2019-04-28T23:47:14.159Z,6.87
2019-04-28T23:49:15.528Z,6.60
2019-04-28T23:51:18.901Z,6.30
2019-04-28T23:53:38.925Z,6.65
2019-04-28T23:55:40.185Z,7.30
2019-04-28T23:57:41.505Z,6.50
2019-04-28T23:59:42.785Z,6.12
